Time;durP1;ratioP1;P1;durP2;ratioP2;P2;SDS_P1;SDS_P2;PMS_P1;PMS_P2;Temp;Humidity;BMP_temperature;BMP_pressure;BME280_temperature;BME280_humidity;BME280_pressure;Samples;Min_cycle;Max_cycle;Signal;HPM_P1;HPM_P2
2024/01/18 00:00:28;;;;;;;5.18;2.88;;;;;;;;;;5130474;27;20039;-70
2024/01/18 00:02:54;;;;;;;5.45;2.97;;;;;;;;;;5130245;27;20047;-70
2024/01/18 00:05:21;;;;;;;4.50;2.53;;;;;;;;;;5130643;27;20078;-69
2024/01/18 00:07:49;;;;;;;4.90;2.72;;;;;;;;;;5129903;27;20807;-70
2024/01/18 00:10:15;;;;;;;4.72;2.90;;;;;;;;;;5129813;27;20058;-70
2024/01/18 00:12:42;;;;;;;4.03;2.53;;;;;;;;;;5130266;27;20196;-71
2024/01/18 00:15:10;;;;;;;4.88;2.90;;;;;;;;;;5130091;27;20039;-71
2024/01/18 00:17:37;;;;;;;6.18;3.00;;;;;;;;;;5129631;27;20042;-70
2024/01/18 00:20:04;;;;;;;5.03;2.88;;;;;;;;;;5130312;27;20047;-70
2024/01/18 00:22:31;;;;;;;4.35;2.67;;;;;;;;;;5130179;27;20087;-69
2024/01/18 00:24:58;;;;;;;5.25;2.83;;;;;;;;;;5129854;27;20101;-70
2024/01/18 00:27:25;;;;;;;5.05;2.70;;;;;;;;;;5129876;27;20055;-70
2024/01/18 00:29:52;;;;;;;4.30;2.67;;;;;;;;;;5129891;27;20122;-70
2024/01/18 00:32:19;;;;;;;5.43;3.00;;;;;;;;;;5130187;27;20078;-70
2024/01/18 00:34:45;;;;;;;4.45;2.78;;;;;;;;;;5129615;27;20147;-70
2024/01/18 00:37:14;;;;;;;6.13;3.40;;;;;;;;;;5128550;27;20501;-70
2024/01/18 00:39:41;;;;;;;5.28;3.10;;;;;;;;;;5129397;27;20056;-69
2024/01/18 00:42:08;;;;;;;6.55;3.53;;;;;;;;;;5129804;27;20118;-70
2024/01/18 00:44:35;;;;;;;6.75;3.97;;;;;;;;;;5129665;28;20051;-70
2024/01/18 00:47:02;;;;;;;6.13;3.45;;;;;;;;;;5129308;28;20402;-70
2024/01/18 00:49:29;;;;;;;6.03;3.40;;;;;;;;;;5129878;28;20495;-70
2024/01/18 00:51:57;;;;;;;5.90;3.88;;;;;;;;;;5129288;28;20502;-70
2024/01/18 00:54:23;;;;;;;6.47;3.70;;;;;;;;;;5129280;28;20058;-70
2024/01/18 00:56:51;;;;;;;5.95;3.72;;;;;;;;;;5129364;28;20058;-70
2024/01/18 00:59:17;;;;;;;6.45;3.88;;;;;;;;;;5111206;28;20043;-70
2024/01/18 01:01:44;;;;;;;6.85;3.50;;;;;;;;;;5129596;28;20043;-70
2024/01/18 01:04:11;;;;;;;6.18;3.50;;;;;;;;;;5129519;28;20765;-70
2024/01/18 01:06:38;;;;;;;6.05;3.63;;;;;;;;;;5129555;28;20498;-70
2024/01/18 01:09:06;;;;;;;5.05;3.20;;;;;;;;;;5129312;28;20069;-71
2024/01/18 01:11:33;;;;;;;5.18;3.22;;;;;;;;;;5129398;28;20059;-69
2024/01/18 01:13:59;;;;;;;5.80;3.55;;;;;;;;;;5129646;28;20054;-71
2024/01/18 01:16:26;;;;;;;6.88;3.63;;;;;;;;;;5129345;28;20122;-71
2024/01/18 01:18:53;;;;;;;4.68;3.10;;;;;;;;;;5129614;28;20051;-71
2024/01/18 01:21:19;;;;;;;6.38;3.20;;;;;;;;;;5129718;28;20134;-71
2024/01/18 01:23:48;;;;;;;5.25;3.05;;;;;;;;;;5129604;28;20104;-70
2024/01/18 01:26:16;;;;;;;4.80;3.00;;;;;;;;;;5128788;28;20426;-70
2024/01/18 01:28:43;;;;;;;4.80;3.00;;;;;;;;;;5129259;28;20077;-70
2024/01/18 01:31:10;;;;;;;4.80;2.80;;;;;;;;;;5129088;28;20043;-70
2024/01/18 01:33:37;;;;;;;5.22;3.00;;;;;;;;;;5129336;28;20062;-70
2024/01/18 01:36:05;;;;;;;5.03;2.92;;;;;;;;;;5110727;28;20494;-70
2024/01/18 01:38:32;;;;;;;4.88;2.80;;;;;;;;;;5129001;28;20132;-70
2024/01/18 01:40:59;;;;;;;3.80;2.50;;;;;;;;;;5129208;28;20059;-70
2024/01/18 01:43:27;;;;;;;4.75;2.58;;;;;;;;;;5129241;28;20071;-70
2024/01/18 01:45:54;;;;;;;5.05;2.75;;;;;;;;;;5129356;28;20503;-70
2024/01/18 01:48:21;;;;;;;4.28;2.53;;;;;;;;;;5129919;27;20589;-70
2024/01/18 01:50:48;;;;;;;4.40;2.55;;;;;;;;;;5132855;27;20076;-70
2024/01/18 01:53:16;;;;;;;5.07;2.55;;;;;;;;;;5132716;27;20065;-69
2024/01/18 01:55:44;;;;;;;4.20;2.30;;;;;;;;;;5132393;27;20046;-69
2024/01/18 01:58:15;;;;;;;4.38;2.42;;;;;;;;;;5132794;27;20043;-69
2024/01/18 02:00:43;;;;;;;4.40;2.85;;;;;;;;;;5133003;27;20043;-70
2024/01/18 02:03:10;;;;;;;4.35;2.33;;;;;;;;;;5132542;27;20426;-71
2024/01/18 02:05:37;;;;;;;3.67;2.22;;;;;;;;;;5132530;27;20069;-70
2024/01/18 02:08:04;;;;;;;3.60;2.10;;;;;;;;;;5132677;27;20086;-70
2024/01/18 02:10:31;;;;;;;4.18;2.50;;;;;;;;;;5132033;27;20054;-70
2024/01/18 02:12:59;;;;;;;3.33;2.05;;;;;;;;;;5132315;27;20518;-71
2024/01/18 02:15:25;;;;;;;4.75;2.50;;;;;;;;;;5132144;27;20487;-71
2024/01/18 02:17:52;;;;;;;3.05;2.08;;;;;;;;;;5131889;27;20409;-70
2024/01/18 02:20:20;;;;;;;4.65;2.05;;;;;;;;;;5132334;27;20049;-71
2024/01/18 02:22:48;;;;;;;3.22;1.98;;;;;;;;;;5132109;27;20047;-70
2024/01/18 02:25:24;;;;;;;3.55;1.98;;;;;;;;;;5132298;27;20062;-70
2024/01/18 02:27:55;;;;;;;3.72;2.15;;;;;;;;;;5131806;27;20058;-70
2024/01/18 02:30:22;;;;;;;;;;;;;;;;;;5132623;27;20047;-70
2024/01/18 02:32:51;;;;;;;2.22;1.60;;;;;;;;;;5132108;27;19966;-70
2024/01/18 02:35:18;;;;;;;2.85;1.70;;;;;;;;;;5132008;27;20530;-70
2024/01/18 02:37:45;;;;;;;4.18;2.00;;;;;;;;;;5131616;27;20684;-70
2024/01/18 02:40:12;;;;;;;2.67;1.80;;;;;;;;;;5131483;27;20039;-69
2024/01/18 02:42:39;;;;;;;3.58;1.83;;;;;;;;;;5132260;27;20091;-69
2024/01/18 02:45:06;;;;;;;4.15;1.90;;;;;;;;;;5131946;27;20054;-70
2024/01/18 02:47:35;;;;;;;3.08;1.80;;;;;;;;;;5131729;27;20051;-69
2024/01/18 02:50:02;;;;;;;3.03;1.95;;;;;;;;;;5131966;27;20058;-69
2024/01/18 02:52:29;;;;;;;3.50;2.20;;;;;;;;;;5131547;27;20043;-70
2024/01/18 02:54:56;;;;;;;4.10;1.90;;;;;;;;;;5131188;27;20043;-70
2024/01/18 02:57:22;;;;;;;2.60;1.70;;;;;;;;;;5131614;27;20055;-69
2024/01/18 02:59:49;;;;;;;4.65;1.80;;;;;;;;;;5130519;27;20462;-70
2024/01/18 03:02:16;;;;;;;3.38;1.77;;;;;;;;;;5131757;27;20047;-69
2024/01/18 03:04:45;;;;;;;3.03;1.80;;;;;;;;;;5131320;27;20051;-69
2024/01/18 03:07:12;;;;;;;3.30;1.85;;;;;;;;;;5131468;27;20050;-69
2024/01/18 03:09:39;;;;;;;2.55;1.70;;;;;;;;;;5130785;27;20051;-69
2024/01/18 03:12:07;;;;;;;3.15;1.80;;;;;;;;;;5131107;27;20050;-71
2024/01/18 03:14:34;;;;;;;3.45;2.00;;;;;;;;;;5131003;27;20388;-69
2024/01/18 03:17:03;;;;;;;3.00;2.00;;;;;;;;;;5131043;27;20051;-69
2024/01/18 03:19:30;;;;;;;4.28;1.70;;;;;;;;;;5131009;27;20043;-69
2024/01/18 03:21:57;;;;;;;2.25;1.50;;;;;;;;;;5130987;27;20100;-71
2024/01/18 03:24:23;;;;;;;2.58;1.50;;;;;;;;;;5130729;27;20388;-69
2024/01/18 03:26:50;;;;;;;3.13;1.52;;;;;;;;;;5131240;27;20093;-69
2024/01/18 03:29:17;;;;;;;2.85;1.65;;;;;;;;;;5130920;27;20060;-70
2024/01/18 03:31:43;;;;;;;3.13;1.77;;;;;;;;;;5131112;27;20054;-69
2024/01/18 03:34:10;;;;;;;2.67;1.52;;;;;;;;;;5130641;27;20514;-69
2024/01/18 03:36:37;;;;;;;3.75;1.80;;;;;;;;;;5130554;27;20400;-71
2024/01/18 03:39:06;;;;;;;2.70;1.55;;;;;;;;;;5130351;27;20043;-71
2024/01/18 03:41:33;;;;;;;3.60;2.30;;;;;;;;;;5130775;27;20525;-70
2024/01/18 03:44:00;;;;;;;2.92;1.83;;;;;;;;;;5130763;27;20043;-71
2024/01/18 03:46:27;;;;;;;2.65;1.70;;;;;;;;;;5130788;27;20071;-70
2024/01/18 03:48:54;;;;;;;3.17;1.80;;;;;;;;;;5130150;27;20498;-70
2024/01/18 03:51:21;;;;;;;3.60;1.88;;;;;;;;;;5130716;27;20331;-70
2024/01/18 03:53:48;;;;;;;3.10;1.67;;;;;;;;;;5130536;27;20051;-69
2024/01/18 03:56:15;;;;;;;2.70;1.83;;;;;;;;;;5130020;27;20050;-70
2024/01/18 03:58:43;;;;;;;2.30;1.67;;;;;;;;;;5130011;27;20058;-70
2024/01/18 04:01:10;;;;;;;2.67;1.88;;;;;;;;;;5130422;27;20070;-70
2024/01/18 04:03:37;;;;;;;2.75;1.77;;;;;;;;;;5130201;27;20502;-70
2024/01/18 04:06:04;;;;;;;3.20;1.80;;;;;;;;;;5130263;27;20054;-69
2024/01/18 04:08:31;;;;;;;2.83;1.77;;;;;;;;;;5130324;27;20047;-69
2024/01/18 04:10:59;;;;;;;3.42;1.85;;;;;;;;;;5129628;27;20130;-70
2024/01/18 04:13:25;;;;;;;3.47;2.00;;;;;;;;;;5129929;27;20054;-69
2024/01/18 04:15:52;;;;;;;2.85;1.88;;;;;;;;;;5129921;27;20051;-69
2024/01/18 04:18:19;;;;;;;3.35;2.03;;;;;;;;;;5129820;27;20441;-71
2024/01/18 04:20:46;;;;;;;3.45;1.92;;;;;;;;;;5129983;27;20484;-70
2024/01/18 04:23:12;;;;;;;3.72;2.10;;;;;;;;;;5130452;27;20047;-70
2024/01/18 04:25:39;;;;;;;3.60;2.10;;;;;;;;;;5130015;27;20047;-70
2024/01/18 04:28:06;;;;;;;4.30;2.20;;;;;;;;;;5129485;27;20616;-71
2024/01/18 04:30:33;;;;;;;4.03;2.10;;;;;;;;;;5129874;27;20649;-70
2024/01/18 04:32:59;;;;;;;3.50;2.10;;;;;;;;;;5130086;27;20055;-70
2024/01/18 04:35:26;;;;;;;3.78;2.00;;;;;;;;;;5129534;27;20483;-69
2024/01/18 04:37:53;;;;;;;4.50;2.20;;;;;;;;;;5129395;27;20568;-70
2024/01/18 04:40:20;;;;;;;3.63;2.00;;;;;;;;;;5129338;27;20039;-69
2024/01/18 04:42:47;;;;;;;3.30;1.90;;;;;;;;;;5129415;27;20043;-69
2024/01/18 04:45:14;;;;;;;3.28;1.95;;;;;;;;;;5130080;27;20050;-70
2024/01/18 04:47:41;;;;;;;3.30;1.95;;;;;;;;;;5129850;27;20043;-69
2024/01/18 04:50:08;;;;;;;3.38;2.20;;;;;;;;;;5129466;27;20139;-70
2024/01/18 04:52:35;;;;;;;3.72;2.00;;;;;;;;;;5129744;28;20066;-69
2024/01/18 04:55:05;;;;;;;3.83;1.95;;;;;;;;;;5129481;28;20043;-70
2024/01/18 04:57:35;;;;;;;3.10;1.90;;;;;;;;;;5129941;28;20047;-70
2024/01/18 05:00:02;;;;;;;3.85;2.20;;;;;;;;;;5129570;28;20468;-70
2024/01/18 05:02:29;;;;;;;2.97;1.90;;;;;;;;;;5129632;28;20046;-70
2024/01/18 05:04:56;;;;;;;3.28;1.80;;;;;;;;;;5129636;28;20058;-70
2024/01/18 05:07:23;;;;;;;2.95;1.90;;;;;;;;;;5129677;28;20039;-70
2024/01/18 05:09:50;;;;;;;3.28;1.85;;;;;;;;;;5128638;28;20405;-70
2024/01/18 05:12:16;;;;;;;3.35;1.98;;;;;;;;;;5129284;28;20426;-70
2024/01/18 05:14:43;;;;;;;3.92;2.20;;;;;;;;;;5129514;28;20122;-70
2024/01/18 05:17:11;;;;;;;4.45;2.08;;;;;;;;;;5129526;28;20058;-69
2024/01/18 05:19:39;;;;;;;2.50;1.80;;;;;;;;;;5129440;28;20047;-70
2024/01/18 05:22:07;;;;;;;3.28;1.88;;;;;;;;;;5129595;28;20043;-70
2024/01/18 05:24:34;;;;;;;3.25;2.00;;;;;;;;;;5132265;27;20047;-69
2024/01/18 05:27:00;;;;;;;3.22;2.10;;;;;;;;;;5133589;27;20084;-70
2024/01/18 05:29:27;;;;;;;2.63;1.80;;;;;;;;;;5132821;27;20096;-70
2024/01/18 05:31:54;;;;;;;3.78;2.10;;;;;;;;;;5133320;27;20043;-70
2024/01/18 05:34:20;;;;;;;3.63;2.20;;;;;;;;;;5133356;27;20043;-70
2024/01/18 05:36:47;;;;;;;3.70;2.40;;;;;;;;;;5133021;27;20078;-70
2024/01/18 05:39:15;;;;;;;4.15;2.40;;;;;;;;;;5132762;27;20078;-71
2024/01/18 05:41:41;;;;;;;3.22;1.90;;;;;;;;;;5133384;27;20043;-69
2024/01/18 05:44:09;;;;;;;2.80;1.90;;;;;;;;;;5133115;27;20070;-69
2024/01/18 05:46:37;;;;;;;3.50;2.08;;;;;;;;;;5133397;27;20130;-70
2024/01/18 05:49:04;;;;;;;3.35;2.05;;;;;;;;;;5132405;27;20047;-72
2024/01/18 05:51:31;;;;;;;3.78;2.00;;;;;;;;;;5133010;27;20071;-71
2024/01/18 05:53:58;;;;;;;3.40;2.05;;;;;;;;;;5132275;27;20179;-70
2024/01/18 05:56:26;;;;;;;3.75;2.20;;;;;;;;;;5132936;27;20049;-69
2024/01/18 05:58:55;;;;;;;3.97;2.30;;;;;;;;;;5132802;27;20054;-69
2024/01/18 06:01:22;;;;;;;3.40;2.08;;;;;;;;;;5132740;27;20049;-70
2024/01/18 06:03:49;;;;;;;4.38;2.58;;;;;;;;;;5132686;27;20471;-69
2024/01/18 06:06:16;;;;;;;3.92;2.60;;;;;;;;;;5132595;27;20491;-70
2024/01/18 06:08:43;;;;;;;4.03;2.58;;;;;;;;;;5132204;27;20520;-69
2024/01/18 06:11:10;;;;;;;4.53;2.47;;;;;;;;;;5131751;27;20452;-69
2024/01/18 06:13:40;;;;;;;4.47;2.30;;;;;;;;;;5132380;27;20043;-70
2024/01/18 06:16:10;;;;;;;5.15;2.92;;;;;;;;;;5132136;27;20473;-71
2024/01/18 06:18:38;;;;;;;4.50;2.72;;;;;;;;;;5114071;27;20398;-70
2024/01/18 06:21:07;;;;;;;3.97;2.70;;;;;;;;;;5132330;27;20047;-69
2024/01/18 06:23:37;;;;;;;5.55;2.70;;;;;;;;;;5132704;27;20043;-69
2024/01/18 06:26:10;;;;;;;4.47;2.47;;;;;;;;;;5131993;27;20040;-70
2024/01/18 06:28:38;;;;;;;3.78;2.38;;;;;;;;;;5132183;27;20091;-70
2024/01/18 06:31:05;;;;;;;6.15;2.63;;;;;;;;;;5132053;27;20047;-70
2024/01/18 06:33:32;;;;;;;4.00;2.60;;;;;;;;;;5131935;27;20046;-69
2024/01/18 06:35:59;;;;;;;3.83;2.58;;;;;;;;;;5130939;27;20042;-69
2024/01/18 06:38:26;;;;;;;4.18;2.50;;;;;;;;;;5132111;27;20043;-70
2024/01/18 06:40:54;;;;;;;4.47;2.47;;;;;;;;;;5131770;27;20051;-71
2024/01/18 06:43:20;;;;;;;4.43;2.33;;;;;;;;;;5132111;27;20055;-71
2024/01/18 06:45:54;;;;;;;3.25;2.28;;;;;;;;;;5131783;27;20058;-70
2024/01/18 06:48:24;;;;;;;3.53;2.33;;;;;;;;;;5131626;27;20043;-70
2024/01/18 06:50:51;;;;;;;5.33;2.30;;;;;;;;;;5131819;27;20274;-70
2024/01/18 06:53:18;;;;;;;4.20;2.20;;;;;;;;;;5131776;27;20122;-70
2024/01/18 06:55:44;;;;;;;3.53;2.20;;;;;;;;;;5131378;27;20058;-71
2024/01/18 06:58:11;;;;;;;3.75;2.28;;;;;;;;;;5131676;27;20092;-70
2024/01/18 07:00:38;;;;;;;3.58;2.30;;;;;;;;;;5131522;27;20103;-70
2024/01/18 07:03:07;;;;;;;3.75;2.20;;;;;;;;;;5113332;27;20039;-71
2024/01/18 07:05:34;;;;;;;3.55;2.00;;;;;;;;;;5131457;27;20074;-70
2024/01/18 07:08:01;;;;;;;7.78;2.50;;;;;;;;;;5131301;27;20046;-70
2024/01/18 07:10:27;;;;;;;3.50;2.00;;;;;;;;;;5130246;27;20078;-69
2024/01/18 07:12:54;;;;;;;4.53;2.33;;;;;;;;;;5131507;27;20071;-69
2024/01/18 07:15:21;;;;;;;4.20;2.15;;;;;;;;;;5131290;27;20039;-69
2024/01/18 07:17:49;;;;;;;4.20;2.22;;;;;;;;;;5131318;27;20040;-70
2024/01/18 07:20:15;;;;;;;4.00;2.33;;;;;;;;;;5131232;27;20067;-69
2024/01/18 07:22:42;;;;;;;4.65;2.40;;;;;;;;;;5131120;27;20055;-69
2024/01/18 07:25:12;;;;;;;4.32;2.50;;;;;;;;;;5130875;27;20050;-70
2024/01/18 07:27:39;;;;;;;4.45;2.40;;;;;;;;;;5131234;27;20050;-70
2024/01/18 07:30:06;;;;;;;3.78;2.30;;;;;;;;;;5130742;27;20097;-70
2024/01/18 07:32:33;;;;;;;3.95;2.25;;;;;;;;;;5130976;27;20047;-70
2024/01/18 07:35:00;;;;;;;4.80;2.58;;;;;;;;;;5131047;27;20043;-70
2024/01/18 07:37:28;;;;;;;4.97;2.22;;;;;;;;;;5130933;27;20505;-69
2024/01/18 07:39:55;;;;;;;4.57;2.50;;;;;;;;;;5130178;27;20091;-69
2024/01/18 07:42:21;;;;;;;5.35;2.40;;;;;;;;;;5130807;27;20047;-69
2024/01/18 07:44:48;;;;;;;4.15;2.40;;;;;;;;;;5130894;27;20118;-70
2024/01/18 07:47:16;;;;;;;4.85;2.45;;;;;;;;;;5130664;27;20126;-70
2024/01/18 07:49:46;;;;;;;4.95;2.35;;;;;;;;;;5111721;27;20495;-70
2024/01/18 07:52:17;;;;;;;3.58;2.20;;;;;;;;;;5130716;27;20045;-70
2024/01/18 07:54:44;;;;;;;4.65;2.35;;;;;;;;;;5130370;27;20043;-70
2024/01/18 07:57:11;;;;;;;3.50;2.20;;;;;;;;;;5130607;27;20113;-70
2024/01/18 07:59:37;;;;;;;3.13;2.13;;;;;;;;;;5130420;27;20067;-71
2024/01/18 08:02:04;;;;;;;3.20;2.00;;;;;;;;;;5130202;27;20047;-71
2024/01/18 08:04:31;;;;;;;4.55;2.20;;;;;;;;;;5130477;27;20051;-71
2024/01/18 08:06:57;;;;;;;3.40;2.20;;;;;;;;;;5130075;27;20066;-70
2024/01/18 08:09:26;;;;;;;5.07;2.53;;;;;;;;;;5129249;27;20491;-70
2024/01/18 08:11:53;;;;;;;3.75;2.30;;;;;;;;;;5130348;27;20071;-71
2024/01/18 08:14:19;;;;;;;4.47;2.63;;;;;;;;;;5130240;27;20058;-70
2024/01/18 08:16:46;;;;;;;4.60;2.33;;;;;;;;;;5130136;27;20405;-70
2024/01/18 08:19:14;;;;;;;4.10;2.50;;;;;;;;;;5129897;27;20089;-70
2024/01/18 08:21:44;;;;;;;4.57;2.30;;;;;;;;;;5130079;27;20061;-70
2024/01/18 08:24:11;;;;;;;3.67;2.40;;;;;;;;;;5129549;27;20494;-69
2024/01/18 08:26:38;;;;;;;5.32;2.50;;;;;;;;;;5111677;27;20047;-70
2024/01/18 08:29:07;;;;;;;4.85;2.50;;;;;;;;;;5129661;27;20047;-69
2024/01/18 08:31:34;;;;;;;4.05;2.55;;;;;;;;;;5129722;27;20078;-69
2024/01/18 08:34:01;;;;;;;5.47;2.50;;;;;;;;;;5130129;27;20054;-69
2024/01/18 08:36:28;;;;;;;4.65;2.90;;;;;;;;;;5129739;27;20051;-69
2024/01/18 08:38:55;;;;;;;5.85;3.00;;;;;;;;;;5111402;27;20402;-70
2024/01/18 08:41:21;;;;;;;5.88;2.78;;;;;;;;;;5129461;27;20197;-69
2024/01/18 08:43:48;;;;;;;4.97;2.75;;;;;;;;;;5130055;27;20051;-71
2024/01/18 08:46:15;;;;;;;5.47;2.80;;;;;;;;;;5129880;27;20099;-70
2024/01/18 08:48:41;;;;;;;4.80;2.75;;;;;;;;;;5129819;27;20771;-69
2024/01/18 08:51:13;;;;;;;7.20;3.20;;;;;;;;;;5129483;27;20055;-69
2024/01/18 08:53:40;;;;;;;5.18;2.60;;;;;;;;;;5129871;28;20044;-69
2024/01/18 08:56:07;;;;;;;5.07;2.85;;;;;;;;;;5129406;28;20044;-69
2024/01/18 08:58:35;;;;;;;5.45;2.83;;;;;;;;;;5131367;27;20047;-69
2024/01/18 09:01:02;;;;;;;4.38;2.50;;;;;;;;;;5133615;27;20130;-70
2024/01/18 09:03:29;;;;;;;5.38;2.97;;;;;;;;;;5134040;27;20137;-69
2024/01/18 09:05:56;;;;;;;5.32;2.85;;;;;;;;;;5133935;27;20067;-69
2024/01/18 09:08:23;;;;;;;6.40;2.78;;;;;;;;;;5133905;27;20043;-70
2024/01/18 09:10:50;;;;;;;5.38;2.70;;;;;;;;;;5132857;27;20055;-69
2024/01/18 09:13:17;;;;;;;3.90;2.40;;;;;;;;;;5134112;27;20088;-69
2024/01/18 09:15:50;;;;;;;4.50;2.35;;;;;;;;;;5116381;27;20051;-69
2024/01/18 09:18:17;;;;;;;4.38;2.30;;;;;;;;;;5133961;27;20039;-70
2024/01/18 09:20:45;;;;;;;3.47;2.20;;;;;;;;;;5133629;27;20044;-69
2024/01/18 09:23:12;;;;;;;4.13;2.28;;;;;;;;;;5133775;27;20120;-70
2024/01/18 09:25:43;;;;;;;4.30;2.42;;;;;;;;;;5132995;27;20043;-69
2024/01/18 09:28:10;;;;;;;3.67;2.15;;;;;;;;;;5133317;27;20108;-70
2024/01/18 09:30:37;;;;;;;3.20;1.95;;;;;;;;;;5133308;27;20042;-70
2024/01/18 09:33:08;;;;;;;9.77;2.53;;;;;;;;;;5133696;27;20050;-70
2024/01/18 09:35:36;;;;;;;5.72;2.38;;;;;;;;;;5133383;27;20085;-72
2024/01/18 09:38:03;;;;;;;4.53;2.55;;;;;;;;;;5133379;27;20050;-70
2024/01/18 09:40:30;;;;;;;5.45;2.42;;;;;;;;;;5132614;27;20066;-70
2024/01/18 09:42:59;;;;;;;4.28;2.28;;;;;;;;;;5133306;27;20050;-70
2024/01/18 09:45:27;;;;;;;5.60;2.80;;;;;;;;;;5133323;27;20480;-70
2024/01/18 09:47:54;;;;;;;6.68;3.15;;;;;;;;;;5132940;27;20047;-70
2024/01/18 09:50:21;;;;;;;4.38;2.75;;;;;;;;;;5132604;27;20058;-70
2024/01/18 09:52:49;;;;;;;4.93;2.70;;;;;;;;;;5132997;27;20070;-70
2024/01/18 09:55:16;;;;;;;8.95;3.50;;;;;;;;;;5132540;27;20043;-69
2024/01/18 09:57:47;;;;;;;8.75;3.53;;;;;;;;;;5132755;27;20062;-69
2024/01/18 10:00:17;;;;;;;8.98;3.38;;;;;;;;;;5132544;27;20043;-69
2024/01/18 10:02:44;;;;;;;9.60;3.58;;;;;;;;;;5132521;27;20050;-70
2024/01/18 10:05:12;;;;;;;7.40;3.25;;;;;;;;;;5132676;27;20039;-69
2024/01/18 10:07:40;;;;;;;6.80;4.13;;;;;;;;;;5132436;27;20051;-69
2024/01/18 10:10:13;;;;;;;9.27;4.43;;;;;;;;;;5131982;27;20116;-70
2024/01/18 10:12:43;;;;;;;7.68;3.70;;;;;;;;;;5132418;27;20050;-69
2024/01/18 10:15:10;;;;;;;5.13;3.15;;;;;;;;;;5132628;27;20611;-70
2024/01/18 10:17:38;;;;;;;6.70;4.00;;;;;;;;;;5132818;27;20072;-70
2024/01/18 10:20:13;;;;;;;7.10;3.80;;;;;;;;;;5132223;27;20043;-69
2024/01/18 10:22:41;;;;;;;8.73;4.00;;;;;;;;;;5132072;27;20434;-69
2024/01/18 10:25:15;;;;;;;5.78;3.63;;;;;;;;;;5132169;27;20054;-69
2024/01/18 10:27:44;;;;;;;5.20;3.20;;;;;;;;;;5131974;27;20047;-70
2024/01/18 10:30:12;;;;;;;6.20;3.50;;;;;;;;;;5113861;27;20057;-70
2024/01/18 10:32:39;;;;;;;6.93;3.80;;;;;;;;;;5132274;27;20054;-70
2024/01/18 10:35:16;;;;;;;6.95;3.30;;;;;;;;;;5132364;27;20049;-70
2024/01/18 10:37:44;;;;;;;9.40;4.10;;;;;;;;;;5131776;27;20530;-69
2024/01/18 10:40:16;;;;;;;6.15;3.40;;;;;;;;;;5131456;27;20058;-69
2024/01/18 10:42:44;;;;;;;10.90;4.22;;;;;;;;;;5131974;27;20043;-70
2024/01/18 10:45:12;;;;;;;5.07;3.00;;;;;;;;;;5132107;27;20051;-69
2024/01/18 10:47:38;;;;;;;9.45;4.38;;;;;;;;;;5131855;27;20058;-70
2024/01/18 10:50:07;;;;;;;7.50;4.28;;;;;;;;;;5113466;27;20068;-69
2024/01/18 10:52:37;;;;;;;4.82;2.80;;;;;;;;;;5131905;27;20058;-69
2024/01/18 10:55:08;;;;;;;4.80;3.37;;;;;;;;;;5131549;27;20053;-70
2024/01/18 10:57:35;;;;;;;5.57;2.80;;;;;;;;;;5131844;27;20039;-69
2024/01/18 11:00:06;;;;;;;3.97;2.63;;;;;;;;;;5131361;27;20047;-69
2024/01/18 11:02:39;;;;;;;6.22;3.00;;;;;;;;;;5131202;27;20047;-70
2024/01/18 11:05:13;;;;;;;8.40;2.97;;;;;;;;;;5131451;27;20079;-69
2024/01/18 11:07:40;;;;;;;6.32;3.15;;;;;;;;;;5113361;27;20510;-69
2024/01/18 11:10:11;;;;;;;5.38;2.70;;;;;;;;;;5130834;27;20055;-70
2024/01/18 11:12:43;;;;;;;6.30;2.70;;;;;;;;;;5131385;27;20096;-70
2024/01/18 11:15:13;;;;;;;5.55;2.97;;;;;;;;;;5131224;27;20047;-70
2024/01/18 11:17:47;;;;;;;6.22;3.05;;;;;;;;;;5131138;27;20130;-70
2024/01/18 11:20:15;;;;;;;8.60;3.03;;;;;;;;;;5130787;27;20406;-70
2024/01/18 11:22:42;;;;;;;7.57;3.28;;;;;;;;;;5130633;27;20043;-71
2024/01/18 11:25:11;;;;;;;5.80;3.03;;;;;;;;;;5131051;27;20046;-70
2024/01/18 11:27:41;;;;;;;6.38;2.58;;;;;;;;;;5131409;27;20087;-70
2024/01/18 11:30:32;;;;;;;;;;;;;;;;;;5131768;27;20100;-69
2024/01/18 11:32:59;;;;;;;8.45;2.53;;;;;;;;;;5117754;27;19920;-69
2024/01/18 11:35:26;;;;;;;3.30;2.13;;;;;;;;;;5130899;27;20495;-69
2024/01/18 11:38:25;;;;;;;5.15;2.17;;;;;;;;;;5131044;27;20094;-69
2024/01/18 11:40:55;;;;;;;4.90;2.00;;;;;;;;;;5130353;27;20093;-70
2024/01/18 11:43:24;;;;;;;;;;;;;;;;;;5131154;27;20119;-69
2024/01/18 11:45:51;;;;;;;6.20;2.40;;;;;;;;;;5130842;27;20441;-69
2024/01/18 11:48:21;;;;;;;4.97;2.35;;;;;;;;;;5130841;27;20050;-69
2024/01/18 11:50:47;;;;;;;3.97;1.90;;;;;;;;;;5130630;27;20039;-69
2024/01/18 11:53:17;;;;;;;4.75;2.03;;;;;;;;;;5130915;27;20047;-69
2024/01/18 11:55:48;;;;;;;3.08;1.60;;;;;;;;;;5130484;27;20051;-69
2024/01/18 11:58:16;;;;;;;4.85;1.90;;;;;;;;;;5130572;27;20046;-69
2024/01/18 12:00:43;;;;;;;5.00;1.70;;;;;;;;;;5130426;27;20031;-69
2024/01/18 12:03:11;;;;;;;3.75;1.60;;;;;;;;;;5130402;27;20151;-69
2024/01/18 12:05:40;;;;;;;4.97;1.90;;;;;;;;;;5130362;27;20040;-70
2024/01/18 12:08:08;;;;;;;3.35;1.40;;;;;;;;;;5130594;27;20066;-69
2024/01/18 12:10:35;;;;;;;3.35;1.42;;;;;;;;;;5129844;27;20121;-70
2024/01/18 12:13:02;;;;;;;2.60;1.40;;;;;;;;;;5111883;27;20453;-70
2024/01/18 12:15:31;;;;;;;4.63;1.20;;;;;;;;;;5130247;27;20475;-69
2024/01/18 12:17:58;;;;;;;3.70;1.35;;;;;;;;;;5130275;27;20058;-70
2024/01/18 12:20:25;;;;;;;2.92;1.25;;;;;;;;;;5112105;27;20090;-70
2024/01/18 12:22:52;;;;;;;2.40;1.13;;;;;;;;;;5130123;27;20043;-70
2024/01/18 12:25:19;;;;;;;5.70;1.30;;;;;;;;;;5129990;27;20059;-71
2024/01/18 12:27:46;;;;;;;4.10;1.25;;;;;;;;;;5130379;27;20066;-71
2024/01/18 12:30:13;;;;;;;3.13;1.20;;;;;;;;;;5129914;27;20138;-70
2024/01/18 12:32:40;;;;;;;4.20;1.10;;;;;;;;;;5129560;27;20047;-71
2024/01/18 12:35:08;;;;;;;2.00;0.95;;;;;;;;;;5129926;27;20047;-71
2024/01/18 12:37:37;;;;;;;2.55;1.10;;;;;;;;;;5129937;27;20092;-71
2024/01/18 12:40:09;;;;;;;2.35;1.25;;;;;;;;;;5129859;27;20126;-71
2024/01/18 12:42:36;;;;;;;2.83;1.13;;;;;;;;;;5129576;27;20058;-71
2024/01/18 12:45:03;;;;;;;2.85;1.20;;;;;;;;;;5129843;27;20100;-71
2024/01/18 12:47:30;;;;;;;2.33;1.10;;;;;;;;;;5129995;27;20044;-71
2024/01/18 12:49:56;;;;;;;5.10;1.40;;;;;;;;;;5129617;27;20092;-71
2024/01/18 12:52:31;;;;;;;3.38;1.05;;;;;;;;;;5129365;27;20043;-71
2024/01/18 12:54:59;;;;;;;2.22;1.13;;;;;;;;;;5129479;28;20051;-71
2024/01/18 12:57:27;;;;;;;3.95;1.30;;;;;;;;;;5129924;28;20043;-71
2024/01/18 12:59:54;;;;;;;2.08;1.10;;;;;;;;;;5129546;28;20043;-71
2024/01/18 13:02:25;;;;;;;3.60;1.15;;;;;;;;;;5129420;28;20103;-71
2024/01/18 13:04:52;;;;;;;3.70;1.40;;;;;;;;;;5129695;28;20044;-71
2024/01/18 13:07:19;;;;;;;2.75;1.10;;;;;;;;;;5130032;28;20112;-71
2024/01/18 13:09:47;;;;;;;3.15;1.30;;;;;;;;;;5111341;28;20062;-71
2024/01/18 13:12:15;;;;;;;2.63;1.25;;;;;;;;;;5129218;28;20047;-70
2024/01/18 13:14:45;;;;;;;2.15;1.20;;;;;;;;;;5129328;28;20459;-70
2024/01/18 13:17:17;;;;;;;3.58;1.40;;;;;;;;;;5129539;28;20043;-70
2024/01/18 13:19:44;;;;;;;2.80;1.10;;;;;;;;;;5129746;28;20088;-70
2024/01/18 13:22:11;;;;;;;3.05;1.10;;;;;;;;;;5129225;28;20066;-70
2024/01/18 13:24:38;;;;;;;1.80;1.10;;;;;;;;;;5129477;28;20043;-70
2024/01/18 13:27:04;;;;;;;2.88;1.10;;;;;;;;;;5129706;28;20047;-70
2024/01/18 13:29:33;;;;;;;2.00;1.00;;;;;;;;;;5129369;28;20039;-70
2024/01/18 13:31:59;;;;;;;2.50;1.10;;;;;;;;;;5129166;28;20116;-70
2024/01/18 13:34:27;;;;;;;3.38;1.20;;;;;;;;;;5129546;28;20044;-70
2024/01/18 13:36:53;;;;;;;3.28;1.27;;;;;;;;;;5129462;28;20111;-70
2024/01/18 13:39:20;;;;;;;3.05;1.17;;;;;;;;;;5129154;27;20047;-70
2024/01/18 13:41:47;;;;;;;2.08;0.95;;;;;;;;;;5129183;28;20679;-70
2024/01/18 13:44:14;;;;;;;2.20;1.05;;;;;;;;;;5130312;27;20047;-70
2024/01/18 13:46:41;;;;;;;2.88;1.20;;;;;;;;;;5133074;27;20391;-70
2024/01/18 13:49:10;;;;;;;3.63;1.10;;;;;;;;;;5133188;27;20047;-70
2024/01/18 13:51:37;;;;;;;2.50;1.17;;;;;;;;;;5132897;27;20608;-70
2024/01/18 13:54:04;;;;;;;2.22;1.00;;;;;;;;;;5132553;27;20043;-70
2024/01/18 13:56:31;;;;;;;3.67;1.20;;;;;;;;;;5132956;27;20750;-70
2024/01/18 13:58:58;;;;;;;2.95;1.10;;;;;;;;;;5133115;27;20039;-70
2024/01/18 14:01:24;;;;;;;2.67;1.10;;;;;;;;;;5132889;27;20058;-70
2024/01/18 14:03:52;;;;;;;4.20;1.20;;;;;;;;;;5132544;27;20047;-70
2024/01/18 14:06:22;;;;;;;2.88;1.10;;;;;;;;;;5132490;27;20529;-70
2024/01/18 14:08:49;;;;;;;3.22;0.93;;;;;;;;;;5132587;27;20054;-70
2024/01/18 14:11:19;;;;;;;2.17;1.02;;;;;;;;;;5132144;27;20065;-70
2024/01/18 14:13:47;;;;;;;;;;;;;;;;;;5132796;27;20507;-69
2024/01/18 14:16:16;;;;;;;2.30;0.90;;;;;;;;;;5115088;27;19919;-70
2024/01/18 14:18:43;;;;;;;3.03;1.17;;;;;;;;;;5132666;27;20126;-69
2024/01/18 14:21:10;;;;;;;2.45;1.08;;;;;;;;;;5132876;27;20054;-70
2024/01/18 14:23:37;;;;;;;3.45;1.10;;;;;;;;;;5132175;27;20053;-70
2024/01/18 14:26:04;;;;;;;2.80;1.08;;;;;;;;;;5132288;27;20047;-70
2024/01/18 14:28:32;;;;;;;2.28;1.23;;;;;;;;;;5132055;27;20107;-70
2024/01/18 14:31:00;;;;;;;3.00;1.20;;;;;;;;;;5132484;27;20051;-71
2024/01/18 14:33:27;;;;;;;2.63;1.05;;;;;;;;;;5132302;27;20051;-70
2024/01/18 14:35:54;;;;;;;2.33;1.20;;;;;;;;;;5132307;27;20043;-70
2024/01/18 14:38:21;;;;;;;4.43;1.30;;;;;;;;;;5132567;27;20043;-70
2024/01/18 14:40:48;;;;;;;4.03;1.30;;;;;;;;;;5132053;27;20047;-71
2024/01/18 14:43:15;;;;;;;4.93;1.15;;;;;;;;;;5131624;27;20047;-69
2024/01/18 14:45:42;;;;;;;1.80;1.00;;;;;;;;;;5131802;27;20109;-69